createdAt,value
2023-05-19T00:01:07.615Z,12.25
2023-05-19T00:03:40.847Z,12.05
2023-05-19T00:06:10.400Z,11.97
2023-05-19T00:08:39.991Z,11.97
2023-05-19T00:11:09.299Z,12.05
2023-05-19T00:13:38.319Z,12.02
2023-05-19T00:16:07.773Z,12.01
2023-05-19T00:18:37.865Z,12.06
2023-05-19T00:21:06.516Z,12.00
2023-05-19T00:23:35.048Z,12.08
2023-05-19T00:26:03.683Z,12.14
2023-05-19T00:28:32.435Z,12.16
2023-05-19T00:31:01.449Z,12.16
2023-05-19T00:33:30.120Z,12.30
2023-05-19T00:36:00.136Z,12.27
2023-05-19T00:38:28.790Z,12.37
2023-05-19T00:40:57.514Z,12.40
2023-05-19T00:43:26.850Z,12.44
2023-05-19T00:45:55.488Z,12.43
2023-05-19T00:48:24.690Z,12.43
2023-05-19T00:50:55.040Z,12.48
2023-05-19T00:53:26.556Z,12.41
2023-05-19T00:55:55.443Z,12.49
2023-05-19T00:58:25.877Z,12.48
2023-05-19T01:00:56.416Z,12.48
2023-05-19T01:03:25.511Z,12.48
2023-05-19T01:05:54.389Z,12.45
2023-05-19T01:08:25.146Z,12.45
2023-05-19T01:10:54.647Z,12.45
2023-05-19T01:13:23.343Z,12.44
2023-05-19T01:16:02.105Z,12.42
2023-05-19T01:18:56.611Z,12.36
2023-05-19T01:21:50.392Z,12.39
2023-05-19T01:24:48.471Z,12.33
2023-05-19T01:27:45.799Z,12.39
2023-05-19T01:30:27.524Z,12.37
2023-05-19T01:32:59.837Z,12.36
2023-05-19T01:35:29.407Z,12.35
2023-05-19T01:38:00.335Z,12.31
2023-05-19T01:40:32.431Z,12.22
2023-05-19T01:43:04.169Z,12.28
2023-05-19T01:45:35.670Z,12.30
2023-05-19T01:48:09.999Z,12.22
2023-05-19T01:50:39.869Z,12.23
2023-05-19T01:53:08.655Z,12.21
2023-05-19T01:55:38.976Z,12.23
2023-05-19T01:58:17.100Z,12.23
2023-05-19T02:00:55.104Z,12.20
2023-05-19T02:03:34.553Z,12.10
2023-05-19T02:06:15.847Z,12.15
2023-05-19T02:08:50.031Z,12.07
2023-05-19T02:11:29.191Z,12.11
2023-05-19T02:14:02.857Z,12.12
2023-05-19T02:16:34.206Z,12.08
2023-05-19T02:19:03.240Z,12.08
2023-05-19T02:21:32.204Z,12.08
2023-05-19T02:24:01.224Z,12.05
2023-05-19T02:26:30.808Z,12.08
2023-05-19T02:28:59.723Z,12.05
2023-05-19T02:31:28.580Z,12.04
2023-05-19T02:33:59.485Z,12.02
2023-05-19T02:36:28.962Z,11.99
2023-05-19T02:38:57.463Z,12.02
2023-05-19T02:41:26.249Z,12.02
2023-05-19T02:43:54.842Z,11.98
2023-05-19T02:46:23.602Z,12.00
2023-05-19T02:48:52.851Z,11.97
2023-05-19T02:51:23.065Z,11.97
2023-05-19T02:53:51.959Z,11.86
2023-05-19T02:56:21.573Z,11.89
2023-05-19T02:58:50.201Z,11.93
2023-05-19T03:01:18.863Z,11.92
2023-05-19T03:03:47.623Z,11.90
2023-05-19T03:06:18.699Z,11.89
2023-05-19T03:08:48.990Z,11.90
2023-05-19T03:11:17.606Z,11.89
2023-05-19T03:13:46.420Z,11.82
2023-05-19T03:16:15.477Z,11.87
2023-05-19T03:18:45.776Z,11.89
2023-05-19T03:21:14.604Z,11.87
2023-05-19T03:23:43.319Z,11.81
2023-05-19T03:26:13.338Z,11.80
2023-05-19T03:28:42.254Z,11.84
2023-05-19T03:31:11.121Z,11.79
2023-05-19T03:33:40.067Z,11.89
2023-05-19T03:36:09.442Z,11.86
2023-05-19T03:38:38.028Z,11.87
2023-05-19T03:41:06.912Z,11.85
2023-05-19T03:43:36.952Z,11.81
2023-05-19T03:46:06.284Z,11.85
2023-05-19T03:48:35.446Z,11.88
2023-05-19T03:51:04.649Z,11.88
2023-05-19T03:53:33.733Z,11.90
2023-05-19T03:56:02.686Z,11.85
2023-05-19T03:58:31.841Z,11.85
2023-05-19T04:01:02.374Z,11.90
2023-05-19T04:03:31.039Z,11.89
2023-05-19T04:06:00.315Z,11.94
2023-05-19T04:08:29.264Z,11.86
2023-05-19T04:10:58.277Z,11.94
2023-05-19T04:13:26.877Z,11.95
2023-05-19T04:15:56.293Z,11.95
2023-05-19T04:18:28.795Z,11.85
2023-05-19T04:20:58.353Z,11.86
2023-05-19T04:23:26.951Z,11.82
2023-05-19T04:25:57.396Z,11.67
2023-05-19T04:28:26.170Z,11.73
2023-05-19T04:30:55.124Z,11.68
2023-05-19T04:33:23.765Z,11.69
2023-05-19T04:35:55.597Z,11.62
2023-05-19T04:38:24.427Z,11.67
2023-05-19T04:40:53.424Z,11.73
2023-05-19T04:43:22.823Z,11.70
2023-05-19T04:45:51.812Z,11.70
2023-05-19T04:48:21.913Z,11.64
2023-05-19T04:50:52.380Z,11.58
2023-05-19T04:53:23.111Z,11.60
2023-05-19T04:55:51.695Z,11.61
2023-05-19T04:58:20.261Z,11.50
2023-05-19T05:00:48.948Z,11.64
2023-05-19T05:03:18.535Z,11.67
2023-05-19T05:05:47.279Z,11.70
2023-05-19T05:08:22.394Z,11.65
2023-05-19T05:10:57.948Z,11.73
2023-05-19T05:13:27.491Z,11.77
2023-05-19T05:15:56.851Z,11.80
2023-05-19T05:18:25.982Z,11.81
2023-05-19T05:20:55.167Z,11.85
2023-05-19T05:23:24.694Z,11.86
2023-05-19T05:25:55.650Z,11.90
2023-05-19T05:28:24.827Z,11.86
2023-05-19T05:30:53.328Z,11.90
2023-05-19T05:33:22.644Z,11.86
2023-05-19T05:35:51.724Z,11.80
2023-05-19T05:38:28.776Z,11.86
2023-05-19T05:40:58.822Z,11.84
2023-05-19T05:43:30.178Z,11.77
2023-05-19T05:45:58.942Z,11.85
2023-05-19T05:48:28.381Z,11.89
2023-05-19T05:50:59.443Z,11.78
2023-05-19T05:53:33.786Z,11.93
2023-05-19T05:56:05.977Z,11.98
2023-05-19T05:58:36.834Z,11.99
2023-05-19T06:01:06.398Z,11.92
2023-05-19T06:03:35.017Z,11.90
2023-05-19T06:06:03.904Z,11.91
2023-05-19T06:08:32.697Z,11.90
2023-05-19T06:11:01.266Z,11.95
2023-05-19T06:13:31.539Z,11.90
2023-05-19T06:16:02.003Z,11.88
2023-05-19T06:18:31.347Z,11.97
2023-05-19T06:21:00.135Z,11.90
2023-05-19T06:23:29.563Z,11.98
2023-05-19T06:25:58.318Z,11.90
2023-05-19T06:28:27.053Z,11.89
2023-05-19T06:30:57.845Z,11.94
2023-05-19T06:33:28.221Z,11.96
2023-05-19T06:35:57.862Z,12.02
2023-05-19T06:38:26.984Z,12.02
2023-05-19T06:40:55.754Z,12.04
2023-05-19T06:43:26.480Z,12.08
2023-05-19T06:45:56.408Z,11.99
2023-05-19T06:48:25.157Z,11.97
2023-05-19T06:50:54.428Z,12.06
2023-05-19T06:53:23.001Z,12.12
2023-05-19T06:56:00.022Z,12.14
2023-05-19T06:58:29.009Z,12.11
2023-05-19T07:00:59.053Z,12.10
2023-05-19T07:03:27.771Z,11.93
2023-05-19T07:05:57.196Z,12.04
2023-05-19T07:08:27.946Z,12.08
2023-05-19T07:10:56.796Z,12.05
2023-05-19T07:13:27.346Z,12.07
2023-05-19T07:15:57.682Z,12.04
2023-05-19T07:18:30.186Z,12.06
2023-05-19T07:20:58.803Z,12.07
2023-05-19T07:23:33.700Z,12.10
2023-05-19T07:26:11.394Z,12.13
2023-05-19T07:28:51.033Z,12.14
2023-05-19T07:31:20.947Z,12.16
2023-05-19T07:33:53.027Z,12.20
2023-05-19T07:36:23.145Z,12.10
2023-05-19T07:38:51.836Z,12.21
2023-05-19T07:41:23.398Z,12.23
2023-05-19T07:43:51.905Z,12.14
2023-05-19T07:46:22.422Z,12.25
2023-05-19T07:48:52.681Z,12.31
2023-05-19T07:51:21.235Z,12.37
2023-05-19T07:53:49.748Z,12.42
2023-05-19T07:56:18.215Z,12.47
2023-05-19T07:58:49.718Z,12.37
2023-05-19T08:01:18.572Z,12.37
2023-05-19T08:03:47.282Z,12.33
2023-05-19T08:06:17.503Z,12.38
2023-05-19T08:08:46.618Z,12.37
2023-05-19T08:11:18.417Z,12.38
2023-05-19T08:13:48.913Z,12.38
2023-05-19T08:16:18.368Z,12.45
2023-05-19T08:18:47.424Z,12.46
2023-05-19T08:21:18.128Z,12.52
2023-05-19T08:23:46.859Z,12.59
2023-05-19T08:26:15.654Z,12.66
2023-05-19T08:28:44.615Z,12.74
2023-05-19T08:31:13.426Z,12.75
2023-05-19T08:33:42.833Z,12.78
2023-05-19T08:36:11.483Z,12.74
2023-05-19T08:38:41.960Z,12.78
2023-05-19T08:41:10.751Z,12.87
2023-05-19T08:43:40.181Z,12.88
2023-05-19T08:46:08.951Z,12.95
2023-05-19T08:48:43.911Z,13.00
2023-05-19T08:51:27.528Z,12.99
2023-05-19T08:54:06.432Z,13.02
2023-05-19T08:56:35.678Z,13.15
2023-05-19T08:59:04.463Z,13.20
2023-05-19T09:01:33.697Z,13.26
2023-05-19T09:04:02.797Z,13.25
2023-05-19T09:06:32.555Z,13.27
2023-05-19T09:09:03.014Z,13.38
2023-05-19T09:11:31.482Z,13.29
2023-05-19T09:13:59.942Z,13.32
2023-05-19T09:16:30.169Z,13.40
2023-05-19T09:19:01.547Z,13.46
2023-05-19T09:21:33.992Z,13.57
2023-05-19T09:24:09.754Z,13.60
2023-05-19T09:26:39.571Z,13.64
2023-05-19T09:29:14.798Z,13.69
2023-05-19T09:31:50.738Z,13.66
2023-05-19T09:34:19.347Z,13.67
2023-05-19T09:36:49.698Z,13.76
2023-05-19T09:39:20.645Z,13.84
2023-05-19T09:41:52.693Z,13.78
2023-05-19T09:44:24.569Z,13.85
2023-05-19T09:46:55.511Z,13.96
2023-05-19T09:49:24.833Z,13.98
2023-05-19T09:51:55.673Z,13.91
2023-05-19T09:54:26.279Z,14.03
2023-05-19T09:57:00.225Z,14.03
2023-05-19T09:59:32.898Z,14.12
2023-05-19T10:02:03.575Z,14.16
2023-05-19T10:04:34.304Z,14.13
2023-05-19T10:07:05.833Z,14.07
2023-05-19T10:09:38.179Z,14.02
2023-05-19T10:12:10.793Z,14.07
2023-05-19T10:14:39.768Z,14.13
2023-05-19T10:17:09.723Z,14.13
2023-05-19T10:19:40.215Z,14.08
2023-05-19T10:22:08.744Z,14.16
2023-05-19T10:24:38.946Z,14.15
2023-05-19T10:27:12.335Z,14.09
2023-05-19T10:29:46.087Z,14.04
2023-05-19T10:32:18.511Z,14.07
2023-05-19T10:35:25.115Z,14.18
2023-05-19T10:38:00.518Z,14.26
2023-05-19T10:40:34.861Z,14.28
2023-05-19T10:43:22.625Z,14.31
2023-05-19T10:45:54.593Z,14.37
2023-05-19T10:48:23.335Z,14.31
2023-05-19T10:50:56.495Z,14.30
2023-05-19T10:53:32.728Z,14.34
2023-05-19T10:56:04.458Z,14.38
2023-05-19T10:58:52.405Z,14.33
2023-05-19T11:01:22.409Z,14.37
2023-05-19T11:03:52.552Z,14.36
2023-05-19T11:06:22.935Z,14.20
2023-05-19T11:08:56.633Z,14.23
2023-05-19T11:11:26.837Z,14.29
2023-05-19T11:13:56.541Z,14.26
2023-05-19T11:16:32.994Z,14.21
2023-05-19T11:19:01.982Z,14.18
2023-05-19T11:21:44.810Z,14.28
2023-05-19T11:24:37.560Z,14.33
2023-05-19T11:27:26.509Z,14.32
2023-05-19T11:29:56.197Z,14.26
2023-05-19T11:32:28.664Z,14.34
2023-05-19T11:34:58.043Z,14.27
2023-05-19T11:37:27.042Z,14.28
2023-05-19T11:39:55.529Z,14.38
2023-05-19T11:42:25.532Z,14.38
2023-05-19T11:44:57.304Z,14.30
2023-05-19T11:47:25.827Z,14.34
2023-05-19T11:49:56.876Z,14.26
2023-05-19T11:52:27.656Z,14.23
2023-05-19T11:54:57.059Z,14.08
2023-05-19T11:57:28.000Z,14.07
2023-05-19T11:59:57.262Z,14.07
2023-05-19T12:02:28.091Z,14.11
2023-05-19T12:04:57.276Z,14.14
2023-05-19T12:07:26.590Z,14.22
2023-05-19T12:10:00.071Z,14.15
2023-05-19T12:12:32.706Z,14.27
2023-05-19T12:15:06.437Z,14.29
2023-05-19T12:17:35.203Z,14.15
2023-05-19T12:20:05.170Z,14.35
2023-05-19T12:22:34.037Z,14.40
2023-05-19T12:25:03.135Z,14.27
2023-05-19T12:27:37.539Z,14.27
2023-05-19T12:30:07.128Z,14.32
2023-05-19T12:32:36.862Z,14.32
2023-05-19T12:35:09.610Z,14.29
2023-05-19T12:37:44.139Z,14.18
2023-05-19T12:40:18.619Z,14.34
2023-05-19T12:42:52.762Z,14.28
2023-05-19T12:45:26.267Z,14.25
2023-05-19T12:47:59.961Z,14.35
2023-05-19T12:50:33.184Z,14.34
2023-05-19T12:53:02.661Z,14.23
2023-05-19T12:55:32.387Z,14.36
2023-05-19T12:58:09.154Z,14.29
2023-05-19T13:00:42.995Z,14.31
2023-05-19T13:03:19.126Z,14.42
2023-05-19T13:05:49.969Z,14.48
2023-05-19T13:08:21.931Z,14.48
2023-05-19T13:10:53.500Z,14.39
2023-05-19T13:13:25.227Z,14.46
2023-05-19T13:15:54.155Z,14.44
2023-05-19T13:18:23.117Z,14.36
2023-05-19T13:20:53.276Z,14.36
2023-05-19T13:23:22.240Z,14.38
2023-05-19T13:25:52.158Z,14.35
2023-05-19T13:28:20.840Z,14.33
2023-05-19T13:30:51.608Z,14.29
2023-05-19T13:33:20.792Z,14.33
2023-05-19T13:35:50.719Z,14.50
2023-05-19T13:38:22.101Z,14.55
2023-05-19T13:40:54.634Z,14.46
2023-05-19T13:43:23.840Z,14.56
2023-05-19T13:45:55.171Z,14.57
2023-05-19T13:48:26.441Z,14.75
2023-05-19T13:50:55.982Z,14.72
2023-05-19T13:53:24.952Z,14.72
2023-05-19T13:55:55.496Z,14.75
2023-05-19T13:58:24.478Z,14.76
2023-05-19T14:00:56.665Z,14.78
2023-05-19T14:03:25.412Z,14.81
2023-05-19T14:05:55.487Z,14.91
2023-05-19T14:08:24.978Z,14.95
2023-05-19T14:10:55.246Z,14.88
2023-05-19T14:13:33.639Z,14.99
2023-05-19T14:16:06.677Z,15.20
2023-05-19T14:18:35.502Z,15.42
2023-05-19T14:21:04.094Z,15.57
2023-05-19T14:23:33.678Z,15.74
2023-05-19T14:26:02.414Z,15.82
2023-05-19T14:28:31.709Z,15.76
2023-05-19T14:31:00.289Z,15.70
2023-05-19T14:33:34.898Z,15.61
2023-05-19T14:36:05.774Z,15.59
2023-05-19T14:38:40.258Z,15.54
2023-05-19T14:41:10.186Z,15.35
2023-05-19T14:43:43.877Z,15.54
2023-05-19T14:46:15.100Z,15.46
2023-05-19T14:48:45.519Z,15.60
2023-05-19T14:51:15.080Z,15.48
2023-05-19T14:53:43.790Z,15.60
2023-05-19T14:56:12.771Z,15.65
2023-05-19T14:58:41.760Z,15.68
2023-05-19T15:01:10.803Z,15.52
2023-05-19T15:03:39.820Z,15.39
2023-05-19T15:06:13.038Z,15.38
2023-05-19T15:08:46.149Z,15.21
2023-05-19T15:11:15.197Z,15.21
2023-05-19T15:13:44.277Z,15.19
2023-05-19T15:16:22.283Z,15.30
2023-05-19T15:18:51.744Z,15.32
2023-05-19T15:21:21.911Z,15.29
2023-05-19T15:23:53.353Z,15.35
2023-05-19T15:26:23.163Z,15.44
2023-05-19T15:28:55.160Z,15.50
2023-05-19T15:31:24.494Z,15.37
2023-05-19T15:33:57.350Z,15.21
2023-05-19T15:36:28.791Z,15.16
2023-05-19T15:39:00.523Z,15.29
2023-05-19T15:41:29.644Z,15.24
2023-05-19T15:44:01.778Z,15.17
2023-05-19T15:46:35.378Z,15.29
2023-05-19T15:49:04.503Z,15.35
2023-05-19T15:51:35.570Z,15.26
2023-05-19T15:54:04.672Z,15.32
2023-05-19T15:56:33.987Z,15.27
2023-05-19T15:59:03.196Z,15.13
2023-05-19T16:01:32.420Z,15.16
2023-05-19T16:04:04.041Z,15.16
2023-05-19T16:06:34.684Z,15.15
2023-05-19T16:09:03.869Z,15.25
2023-05-19T16:11:32.801Z,15.15
2023-05-19T16:14:01.674Z,15.25
2023-05-19T16:16:30.563Z,15.23
2023-05-19T16:18:59.997Z,15.22
2023-05-19T16:21:29.221Z,15.11
2023-05-19T16:24:00.234Z,15.11
2023-05-19T16:26:29.348Z,15.16
2023-05-19T16:28:59.876Z,15.12
2023-05-19T16:31:29.020Z,15.18
2023-05-19T16:33:59.051Z,15.02
2023-05-19T16:36:28.522Z,15.15
2023-05-19T16:38:59.073Z,15.03
2023-05-19T16:41:29.969Z,15.13
2023-05-19T16:43:59.052Z,15.06
2023-05-19T16:46:29.217Z,15.14
2023-05-19T16:49:01.976Z,15.11
2023-05-19T16:51:30.541Z,15.09
2023-05-19T16:54:00.775Z,15.13
2023-05-19T16:56:29.842Z,15.09
2023-05-19T16:58:58.895Z,15.09
2023-05-19T17:01:27.681Z,14.99
2023-05-19T17:03:56.794Z,15.04
2023-05-19T17:06:26.928Z,15.05
2023-05-19T17:08:56.213Z,15.15
2023-05-19T17:11:27.312Z,15.05
2023-05-19T17:13:56.929Z,15.11
2023-05-19T17:16:26.514Z,15.09
2023-05-19T17:18:56.596Z,15.15
2023-05-19T17:21:25.962Z,15.07
2023-05-19T17:23:57.077Z,15.13
2023-05-19T17:26:28.337Z,15.19
2023-05-19T17:29:04.014Z,15.24
2023-05-19T17:31:36.219Z,15.24
2023-05-19T17:34:06.070Z,15.24
2023-05-19T17:36:35.707Z,15.26
2023-05-19T17:39:13.454Z,15.29
2023-05-19T17:41:47.108Z,15.30
2023-05-19T17:44:17.053Z,15.19
2023-05-19T17:46:49.410Z,15.22
2023-05-19T17:49:19.428Z,15.26
2023-05-19T17:51:49.708Z,15.25
2023-05-19T17:54:20.554Z,15.30
2023-05-19T17:56:57.306Z,15.28
2023-05-19T17:59:27.388Z,15.28
2023-05-19T18:02:00.034Z,15.29
2023-05-19T18:04:31.544Z,15.29
2023-05-19T18:07:01.103Z,15.22
2023-05-19T18:09:32.899Z,15.25
2023-05-19T18:12:09.895Z,15.21
2023-05-19T18:14:39.720Z,15.13
2023-05-19T18:17:09.008Z,15.24
2023-05-19T18:19:40.973Z,15.16
2023-05-19T18:22:13.555Z,15.17
2023-05-19T18:24:47.574Z,15.14
2023-05-19T18:27:17.991Z,15.13
2023-05-19T18:29:47.664Z,15.12
2023-05-19T18:32:18.360Z,15.10
2023-05-19T18:34:47.346Z,15.05
2023-05-19T18:37:16.229Z,15.02
2023-05-19T18:39:45.106Z,15.05
2023-05-19T18:42:27.956Z,14.88
2023-05-19T18:44:56.652Z,14.98
2023-05-19T18:47:25.437Z,14.88
2023-05-19T18:49:54.482Z,14.86
2023-05-19T18:52:24.247Z,14.80
2023-05-19T18:54:53.396Z,14.72
2023-05-19T18:57:23.572Z,14.83
2023-05-19T18:59:54.505Z,14.78
2023-05-19T19:02:23.553Z,14.86
2023-05-19T19:04:53.226Z,14.77
2023-05-19T19:07:22.487Z,14.84
2023-05-19T19:09:51.887Z,14.73
2023-05-19T19:12:20.889Z,14.81
2023-05-19T19:14:52.606Z,14.83
2023-05-19T19:17:21.842Z,14.82
2023-05-19T19:19:50.817Z,14.84
2023-05-19T19:22:19.643Z,14.85
2023-05-19T19:24:48.537Z,14.85
2023-05-19T19:27:17.999Z,14.82
2023-05-19T19:29:46.806Z,14.81
2023-05-19T19:32:18.630Z,14.83
2023-05-19T19:34:49.949Z,14.85
2023-05-19T19:37:18.449Z,14.83
2023-05-19T19:39:47.135Z,14.73
2023-05-19T19:42:15.879Z,14.81
2023-05-19T19:44:44.456Z,14.81
2023-05-19T19:47:13.110Z,14.82
2023-05-19T19:49:43.166Z,14.78
2023-05-19T19:52:11.656Z,14.81
2023-05-19T19:54:41.330Z,14.81
2023-05-19T19:57:11.916Z,14.72
2023-05-19T19:59:42.252Z,14.81
2023-05-19T20:02:18.319Z,14.76
2023-05-19T20:04:51.753Z,14.80
2023-05-19T20:07:21.175Z,14.75
2023-05-19T20:09:51.838Z,14.73
2023-05-19T20:12:20.831Z,14.72
2023-05-19T20:14:51.559Z,14.68
2023-05-19T20:17:20.377Z,14.54
2023-05-19T20:19:51.476Z,14.62
2023-05-19T20:22:20.152Z,14.57
2023-05-19T20:24:49.010Z,14.55
2023-05-19T20:27:20.708Z,14.54
2023-05-19T20:29:49.708Z,14.53
2023-05-19T20:32:18.419Z,14.50
2023-05-19T20:34:48.526Z,14.48
2023-05-19T20:37:18.871Z,14.38
2023-05-19T20:39:48.378Z,14.30
2023-05-19T20:42:17.030Z,14.38
2023-05-19T20:44:45.808Z,14.41
2023-05-19T20:47:14.316Z,14.42
2023-05-19T20:49:42.963Z,14.37
2023-05-19T20:52:11.872Z,14.33
2023-05-19T20:54:43.800Z,14.21
2023-05-19T20:57:12.322Z,14.24
2023-05-19T20:59:40.912Z,14.18
2023-05-19T21:02:09.659Z,14.19
2023-05-19T21:04:38.840Z,14.18
2023-05-19T21:07:07.722Z,14.16
2023-05-19T21:09:36.626Z,14.11
2023-05-19T21:12:07.157Z,14.16
2023-05-19T21:14:35.721Z,14.12
2023-05-19T21:17:04.884Z,14.15
2023-05-19T21:19:34.992Z,14.07
2023-05-19T21:22:03.704Z,14.05
2023-05-19T21:24:32.661Z,14.16
2023-05-19T21:27:01.360Z,14.15
2023-05-19T21:29:31.446Z,14.08
2023-05-19T21:32:00.608Z,14.05
2023-05-19T21:34:30.355Z,14.04
2023-05-19T21:36:58.843Z,14.02
2023-05-19T21:39:27.403Z,13.94
2023-05-19T21:41:55.987Z,14.01
2023-05-19T21:44:25.452Z,13.95
2023-05-19T21:46:59.163Z,13.96
2023-05-19T21:49:31.510Z,13.93
2023-05-19T21:52:03.575Z,13.87
2023-05-19T21:54:32.144Z,13.85
2023-05-19T21:57:00.838Z,13.90
2023-05-19T21:59:29.775Z,13.88
2023-05-19T22:02:00.200Z,13.85
2023-05-19T22:04:31.809Z,13.84
2023-05-19T22:07:00.528Z,13.86
2023-05-19T22:09:31.710Z,13.72
2023-05-19T22:12:00.334Z,13.72
2023-05-19T22:14:28.876Z,13.69
2023-05-19T22:16:58.841Z,13.77
2023-05-19T22:19:27.520Z,13.73
2023-05-19T22:22:05.986Z,13.80
2023-05-19T22:24:41.504Z,13.76
2023-05-19T22:27:10.260Z,13.81
2023-05-19T22:29:39.765Z,13.82
2023-05-19T22:32:12.447Z,13.84
2023-05-19T22:34:41.309Z,13.80
2023-05-19T22:37:09.926Z,13.74
2023-05-19T22:39:39.871Z,13.70
2023-05-19T22:42:08.610Z,13.67
2023-05-19T22:44:37.373Z,13.68
2023-05-19T22:47:06.401Z,13.69
2023-05-19T22:49:36.487Z,13.69
2023-05-19T22:52:05.257Z,13.54
2023-05-19T22:54:34.023Z,13.55
2023-05-19T22:57:05.166Z,13.52
2023-05-19T22:59:33.973Z,13.50
2023-05-19T23:02:02.663Z,13.52
2023-05-19T23:04:31.243Z,13.52
2023-05-19T23:07:04.346Z,13.53
2023-05-19T23:09:32.871Z,13.55
2023-05-19T23:12:01.946Z,13.58
2023-05-19T23:14:31.894Z,13.59
2023-05-19T23:17:01.808Z,13.58
2023-05-19T23:19:32.288Z,13.56
2023-05-19T23:22:03.238Z,13.62
2023-05-19T23:24:32.185Z,13.58
2023-05-19T23:27:01.169Z,13.57
2023-05-19T23:29:29.772Z,13.60
2023-05-19T23:31:58.402Z,13.62
2023-05-19T23:34:27.108Z,13.56
2023-05-19T23:36:55.694Z,13.51
2023-05-19T23:39:26.130Z,13.58
2023-05-19T23:41:54.733Z,13.55
2023-05-19T23:44:23.332Z,13.56
2023-05-19T23:46:52.053Z,13.57
2023-05-19T23:49:20.914Z,13.56
2023-05-19T23:51:49.909Z,13.56
2023-05-19T23:54:18.577Z,13.49
2023-05-19T23:56:48.622Z,13.52
2023-05-19T23:59:17.321Z,13.59
